KGYY/GYY METAR and TAF weather

Enter ICAO airport designator
Station Type Date Time Source
KGYY METAR 2021/09/25 03:55 UTC NOAA

KGYY 250355Z AUTO 19011G17KT 160V240 10SM CLR 21/11 A2985 RMK AO2 T02120105


Station Type Date Time Source
KGYY Decoded METAR 2021/09/25 03:55 UTC NOAA

Gary Regional, IN, United States (KGYY) 41-37N 087-25W
Sep 24, 2021 - 11:55 PM EDT / 2021.09.25 0355 UTC
Wind: from the S (190 degrees) at 13 MPH (11 KT) gusting to 20 MPH (17 KT) (direction variable):0
Visibility: 10 mile(s):0
Sky conditions: clear
Temperature: 70.2 F (21.2 C)
Dew Point: 50.9 F (10.5 C)
Relative Humidity: 50%
Pressure (altimeter): 29.85 in. Hg (1010 hPa)
ob: KGYY 250355Z AUTO 19011G17KT 160V240 10SM CLR 21/11 A2985 RMK AO2 T02120105
cycle: 4

Station Type Date Time Source
KGYY TAF 2021/09/25 03:03 UTC NOAA

TAF
AMD KGYY 250300Z 2503/2524 20015G26KT P6SM VCSH BKN070
FM250400 30012G22KT P6SM SHRA SCT025 OVC040
TEMPO 2504/2507 3SM SHRA BKN025
FM250700 28011KT P6SM FEW025 SCT200
FM251600 27014G24KT P6SM SCT200

Example: see airport list